Terminal Aerodrome Forecast
Issued by NWS Wilmington, OH

Current Version | Previous Version | Graphics & Text | Print | Product List | Glossary On
Versions: 1 2 3 4 5 6 7 8 9 10 11 12 13 14 15 16 17 18 19 20 21 22 23 24 25 26 27
000
FTUS41 KILN 201400 AAA
TAFCVG
TAF AMD
KCVG 201457Z 2015/2118 21010KT P6SM BKN080
     FM201700 22012G18KT P6SM BKN040
      TEMPO 2021/2024 -SHRA
     FM210200 29006KT P6SM SCT030
     FM210800 30006KT P6SM OVC040
     FM211500 33012KT P6SM SCT040=

USA.gov is the U.S. government's official web portal to all federal, state and local government web resources and services.